createdAt,value
2018-01-14T00:01:10.434Z,26.27
2018-01-14T00:03:37.081Z,25.13
2018-01-14T00:06:03.476Z,24.90
2018-01-14T00:08:30.074Z,25.33
2018-01-14T00:10:56.515Z,28.30
2018-01-14T00:13:22.977Z,25.73
2018-01-14T00:15:50.159Z,25.40
2018-01-14T00:18:16.747Z,25.67
2018-01-14T00:20:43.340Z,24.87
2018-01-14T00:23:10.684Z,26.83
2018-01-14T00:25:37.896Z,24.00
2018-01-14T00:28:04.395Z,24.93
2018-01-14T00:30:30.973Z,23.20
2018-01-14T00:32:58.533Z,24.60
2018-01-14T00:35:24.928Z,23.37
2018-01-14T00:37:52.512Z,23.47
2018-01-14T00:40:18.864Z,26.07
2018-01-14T00:42:45.251Z,23.33
2018-01-14T00:45:12.470Z,25.30
2018-01-14T00:47:38.765Z,21.70
2018-01-14T00:50:06.716Z,23.10
2018-01-14T00:52:33.486Z,21.03
2018-01-14T00:54:59.806Z,22.43
2018-01-14T00:57:26.387Z,22.60
2018-01-14T00:59:52.649Z,19.63
2018-01-14T01:02:18.941Z,24.17
2018-01-14T01:04:45.231Z,20.33
2018-01-14T01:07:12.245Z,22.33
2018-01-14T01:09:39.313Z,22.90
2018-01-14T01:12:05.579Z,19.67
2018-01-14T01:14:31.841Z,26.17
2018-01-14T01:16:58.138Z,22.63
2018-01-14T01:19:25.165Z,24.37
2018-01-14T01:21:51.453Z,21.57
2018-01-14T01:24:17.758Z,24.87
2018-01-14T01:26:44.038Z,26.53
2018-01-14T01:29:10.303Z,24.67
2018-01-14T01:31:36.661Z,22.10
2018-01-14T01:34:02.951Z,27.90
2018-01-14T01:36:29.281Z,24.10
2018-01-14T01:38:56.309Z,22.53
2018-01-14T01:41:23.328Z,23.63
2018-01-14T01:43:50.394Z,20.73
2018-01-14T01:46:16.694Z,24.30
2018-01-14T01:48:43.716Z,23.97
2018-01-14T01:51:09.990Z,24.17
2018-01-14T01:53:36.306Z,26.47
2018-01-14T01:56:02.583Z,31.13
2018-01-14T01:58:28.869Z,26.43
2018-01-14T02:00:55.185Z,31.57
2018-01-14T02:03:21.441Z,23.87
2018-01-14T02:05:47.742Z,24.63
2018-01-14T02:08:14.808Z,24.10
2018-01-14T02:10:41.069Z,23.07
2018-01-14T02:13:08.098Z,26.53
2018-01-14T02:15:34.429Z,29.27
2018-01-14T02:18:01.418Z,26.07
2018-01-14T02:20:27.697Z,31.53
2018-01-14T02:22:53.985Z,27.20
2018-01-14T02:25:20.991Z,30.07
2018-01-14T02:27:47.319Z,32.23
2018-01-14T02:30:13.626Z,26.33
2018-01-14T02:32:39.891Z,27.60
2018-01-14T02:35:06.169Z,29.03
2018-01-14T02:37:32.469Z,26.27
2018-01-14T02:39:58.745Z,26.43
2018-01-14T02:42:25.022Z,28.33
2018-01-14T02:44:52.094Z,32.23
2018-01-14T02:47:18.365Z,28.07
2018-01-14T02:49:45.430Z,26.57
2018-01-14T02:52:11.779Z,30.57
2018-01-14T02:54:38.054Z,28.67
2018-01-14T02:57:04.357Z,26.20
2018-01-14T02:59:31.378Z,26.87
2018-01-14T03:01:58.410Z,29.67
2018-01-14T03:04:25.425Z,34.17
2018-01-14T03:06:51.738Z,30.67
2018-01-14T03:09:18.006Z,27.13
2018-01-14T03:11:44.317Z,31.27
2018-01-14T03:14:10.631Z,26.63
2018-01-14T03:16:36.925Z,27.10
2018-01-14T03:19:03.969Z,32.60
2018-01-14T03:21:30.257Z,28.30
2018-01-14T03:23:56.586Z,30.20
2018-01-14T03:26:23.599Z,29.97
2018-01-14T03:28:49.881Z,28.87
2018-01-14T03:31:16.193Z,30.07
2018-01-14T03:33:42.465Z,28.13
2018-01-14T03:36:09.498Z,29.90
2018-01-14T03:38:36.515Z,31.43
2018-01-14T03:41:02.788Z,29.80
2018-01-14T03:43:29.822Z,32.07
2018-01-14T03:45:56.114Z,31.23
2018-01-14T03:48:22.405Z,31.77
2018-01-14T03:50:49.435Z,34.03
2018-01-14T03:53:16.441Z,28.17
2018-01-14T03:55:42.750Z,31.23
2018-01-14T03:58:09.053Z,35.40
2018-01-14T04:00:35.324Z,34.73
2018-01-14T04:03:02.370Z,32.50
2018-01-14T04:05:28.649Z,34.77
2018-01-14T04:07:54.925Z,36.60
2018-01-14T04:10:21.190Z,36.03
2018-01-14T04:12:50.766Z,30.27
2018-01-14T04:15:20.414Z,32.87
2018-01-14T04:17:48.846Z,34.80
2018-01-14T04:20:18.437Z,38.10
2018-01-14T04:22:47.916Z,33.53
2018-01-14T04:25:14.186Z,39.37
2018-01-14T04:27:40.487Z,39.50
2018-01-14T04:30:06.793Z,34.43
2018-01-14T04:32:33.068Z,39.57
2018-01-14T04:34:59.363Z,38.07
2018-01-14T04:37:25.635Z,40.13
2018-01-14T04:39:51.907Z,40.37
2018-01-14T04:42:18.190Z,37.77
2018-01-14T04:44:44.446Z,42.17
2018-01-14T04:47:10.813Z,39.77
2018-01-14T04:49:37.107Z,43.77
2018-01-14T04:52:04.110Z,43.80
2018-01-14T04:54:30.378Z,44.90
2018-01-14T04:56:56.675Z,41.27
2018-01-14T04:59:22.929Z,39.73
2018-01-14T05:01:49.221Z,40.10
2018-01-14T05:04:15.526Z,40.43
2018-01-14T05:06:41.830Z,43.80
2018-01-14T05:09:08.851Z,40.93
2018-01-14T05:11:35.911Z,38.67
2018-01-14T05:14:02.195Z,43.90
2018-01-14T05:16:28.474Z,46.37
2018-01-14T05:18:55.838Z,40.97
2018-01-14T05:21:22.170Z,42.70
2018-01-14T05:23:49.188Z,41.10
2018-01-14T05:26:15.544Z,45.67
2018-01-14T05:28:41.842Z,38.70
2018-01-14T05:31:08.847Z,47.43
2018-01-14T05:33:35.156Z,35.07
2018-01-14T05:36:01.420Z,43.60
2018-01-14T05:38:27.711Z,41.90
2018-01-14T05:40:54.760Z,38.90
2018-01-14T05:43:21.027Z,38.23
2018-01-14T05:45:47.326Z,42.30
2018-01-14T05:48:13.652Z,42.13
2018-01-14T05:50:39.935Z,39.87
2018-01-14T05:53:06.220Z,40.80
2018-01-14T05:55:33.276Z,41.33
2018-01-14T05:57:59.545Z,43.97
2018-01-14T06:00:25.837Z,40.83
2018-01-14T06:02:52.134Z,41.13
2018-01-14T06:05:18.402Z,40.13
2018-01-14T06:07:44.727Z,39.90
2018-01-14T06:10:11.059Z,41.67
2018-01-14T06:12:38.078Z,38.53
2018-01-14T06:15:05.158Z,42.50
2018-01-14T06:17:31.419Z,39.43
2018-01-14T06:19:58.433Z,43.37
2018-01-14T06:22:24.704Z,38.97
2018-01-14T06:24:51.023Z,41.07
2018-01-14T06:27:17.308Z,42.00
2018-01-14T06:29:44.313Z,43.63
2018-01-14T06:32:10.635Z,45.07
2018-01-14T06:34:36.920Z,40.43
2018-01-14T06:37:03.205Z,43.07
2018-01-14T06:39:29.503Z,36.90
2018-01-14T06:41:56.523Z,40.90
2018-01-14T06:44:22.801Z,37.37
2018-01-14T06:46:49.140Z,38.80
2018-01-14T06:49:15.425Z,43.30
2018-01-14T06:51:41.698Z,39.53
2018-01-14T06:54:08.736Z,41.83
2018-01-14T06:56:35.760Z,39.83
2018-01-14T06:59:02.038Z,41.20
2018-01-14T07:01:28.409Z,43.47
2018-01-14T07:03:54.650Z,38.77
2018-01-14T07:06:20.965Z,37.67
2018-01-14T07:08:47.278Z,39.70
2018-01-14T07:11:13.546Z,40.40
2018-01-14T07:13:40.562Z,41.03
2018-01-14T07:16:06.871Z,39.23
2018-01-14T07:18:33.160Z,38.33
2018-01-14T07:20:59.443Z,37.37
2018-01-14T07:23:25.765Z,37.07
2018-01-14T07:25:52.039Z,42.70
2018-01-14T07:28:18.330Z,37.73
2018-01-14T07:30:44.632Z,39.57
2018-01-14T07:33:10.941Z,41.50
2018-01-14T07:35:37.302Z,39.40
2018-01-14T07:38:04.412Z,37.70
2018-01-14T07:40:30.748Z,38.90
2018-01-14T07:42:57.059Z,42.83
2018-01-14T07:45:23.432Z,38.03
2018-01-14T07:47:49.865Z,36.13
2018-01-14T07:50:16.231Z,34.33
2018-01-14T07:52:43.429Z,37.53
2018-01-14T07:55:09.774Z,37.97
2018-01-14T07:57:36.106Z,37.90
2018-01-14T08:00:02.571Z,32.53
2018-01-14T08:02:28.902Z,34.13
2018-01-14T08:04:55.210Z,32.80
2018-01-14T08:07:21.572Z,31.90
2018-01-14T08:09:48.671Z,32.53
2018-01-14T08:12:16.088Z,36.90
2018-01-14T08:14:42.504Z,38.70
2018-01-14T08:17:08.897Z,35.63
2018-01-14T08:19:35.246Z,32.40
2018-01-14T08:22:04.629Z,31.57
2018-01-14T08:24:31.071Z,33.03
2018-01-14T08:26:58.204Z,31.03
2018-01-14T08:29:25.183Z,32.97
2018-01-14T08:31:51.579Z,29.10
2018-01-14T08:34:19.670Z,30.23
2018-01-14T08:36:47.182Z,32.03
2018-01-14T08:39:13.878Z,37.53
2018-01-14T08:41:40.980Z,32.80
2018-01-14T08:44:07.612Z,32.93
2018-01-14T08:46:34.501Z,30.37
2018-01-14T08:49:01.810Z,25.13
2018-01-14T08:51:30.097Z,35.10
2018-01-14T08:53:57.343Z,33.70
2018-01-14T08:56:25.360Z,34.90
2018-01-14T08:58:52.385Z,33.73
2018-01-14T09:01:25.368Z,30.77
2018-01-14T09:03:54.263Z,34.07
2018-01-14T09:06:21.544Z,34.83
2018-01-14T09:08:49.433Z,45.17
2018-01-14T09:11:16.286Z,44.33
2018-01-14T09:13:43.431Z,43.57
2018-01-14T09:16:11.162Z,34.30
2018-01-14T09:18:37.978Z,30.63
2018-01-14T09:21:04.373Z,27.87
2018-01-14T09:23:31.039Z,31.43
2018-01-14T09:25:58.371Z,31.37
2018-01-14T09:28:29.740Z,30.03
2018-01-14T09:31:05.485Z,35.80
2018-01-14T09:33:32.249Z,30.87
2018-01-14T09:35:58.975Z,42.80
2018-01-14T09:38:25.839Z,50.10
2018-01-14T09:40:52.460Z,46.77
2018-01-14T09:43:18.893Z,32.23
2018-01-14T09:45:45.304Z,32.30
2018-01-14T09:48:11.962Z,26.97
2018-01-14T09:50:38.631Z,26.13
2018-01-14T09:53:05.346Z,25.00
2018-01-14T09:55:32.023Z,31.53
2018-01-14T09:57:58.368Z,26.90
2018-01-14T10:00:25.012Z,48.07
2018-01-14T10:02:51.664Z,28.73
2018-01-14T10:05:18.246Z,28.53
2018-01-14T10:07:44.581Z,31.43
2018-01-14T10:10:17.019Z,30.73
2018-01-14T10:12:43.447Z,29.83
2018-01-14T10:15:09.757Z,30.07
2018-01-14T10:17:36.177Z,26.17
2018-01-14T10:20:02.536Z,25.33
2018-01-14T10:22:30.590Z,26.30
2018-01-14T10:24:57.057Z,25.43
2018-01-14T10:27:23.487Z,30.43
2018-01-14T10:29:49.905Z,27.53
2018-01-14T10:32:16.191Z,25.57
2018-01-14T10:34:45.264Z,23.20
2018-01-14T10:37:11.589Z,27.03
2018-01-14T10:39:39.306Z,23.03
2018-01-14T10:42:05.571Z,24.67
2018-01-14T10:44:31.879Z,24.87
2018-01-14T10:46:58.924Z,22.83
2018-01-14T10:49:25.290Z,23.93
2018-01-14T10:51:51.647Z,22.90
2018-01-14T10:54:18.713Z,26.97
2018-01-14T10:56:45.934Z,22.10
2018-01-14T10:59:12.330Z,27.10
2018-01-14T11:01:38.652Z,23.03
2018-01-14T11:04:05.702Z,24.40
2018-01-14T11:06:32.184Z,25.77
2018-01-14T11:08:58.516Z,27.73
2018-01-14T11:11:25.555Z,25.00
2018-01-14T11:13:51.873Z,24.43
2018-01-14T11:16:18.220Z,23.03
2018-01-14T11:18:44.511Z,26.13
2018-01-14T11:21:10.830Z,18.97
2018-01-14T11:23:37.138Z,24.33
2018-01-14T11:26:04.155Z,23.87
2018-01-14T11:28:37.521Z,22.10
2018-01-14T11:31:03.807Z,24.07
2018-01-14T11:33:30.088Z,24.80
2018-01-14T11:35:56.398Z,22.97
2018-01-14T11:38:22.764Z,19.93
2018-01-14T11:40:49.090Z,25.40
2018-01-14T11:43:15.493Z,23.10
2018-01-14T11:45:41.823Z,18.37
2018-01-14T11:48:08.246Z,21.93
2018-01-14T11:50:34.531Z,27.87
2018-01-14T11:53:00.877Z,26.57
2018-01-14T11:55:29.067Z,24.30
2018-01-14T11:57:56.457Z,29.73
2018-01-14T12:00:22.770Z,22.03
2018-01-14T12:02:49.057Z,25.53
2018-01-14T12:05:15.672Z,26.10
2018-01-14T12:07:41.957Z,16.27
2018-01-14T12:10:08.278Z,21.10
2018-01-14T12:12:35.320Z,17.83
2018-01-14T12:15:02.391Z,19.37
2018-01-14T12:17:28.834Z,22.07
2018-01-14T12:19:55.218Z,19.37
2018-01-14T12:22:21.559Z,18.53
2018-01-14T12:24:47.830Z,14.60
2018-01-14T12:27:14.248Z,20.47
2018-01-14T12:29:41.532Z,17.93
2018-01-14T12:32:07.813Z,20.40
2018-01-14T12:34:40.647Z,19.93
2018-01-14T12:37:07.050Z,16.63
2018-01-14T12:39:33.355Z,17.53
2018-01-14T12:41:59.678Z,23.67
2018-01-14T12:44:26.097Z,25.47
2018-01-14T12:46:52.649Z,22.27
2018-01-14T12:49:19.718Z,19.97
2018-01-14T12:51:46.207Z,21.83
2018-01-14T12:54:13.247Z,26.63
2018-01-14T12:56:39.534Z,27.67
2018-01-14T12:59:05.812Z,30.17
2018-01-14T13:01:32.169Z,23.27
2018-01-14T13:03:58.463Z,21.90
2018-01-14T13:06:24.733Z,29.30
2018-01-14T13:08:51.060Z,32.77
2018-01-14T13:11:17.367Z,25.17
2018-01-14T13:13:43.655Z,19.63
2018-01-14T13:16:10.745Z,33.40
2018-01-14T13:18:37.093Z,21.93
2018-01-14T13:21:03.536Z,18.07
2018-01-14T13:23:29.910Z,32.93
2018-01-14T13:25:56.227Z,17.70
2018-01-14T13:28:22.528Z,38.00
2018-01-14T13:30:48.838Z,32.37
2018-01-14T13:33:15.147Z,31.53
2018-01-14T13:35:41.443Z,36.03
2018-01-14T13:38:08.002Z,27.80
2018-01-14T13:40:34.375Z,21.93
2018-01-14T13:43:00.776Z,23.27
2018-01-14T13:45:27.819Z,20.83
2018-01-14T13:47:54.930Z,18.33
2018-01-14T13:50:21.253Z,17.97
2018-01-14T13:52:48.348Z,17.47
2018-01-14T13:55:14.692Z,20.23
2018-01-14T13:57:40.987Z,19.73
2018-01-14T14:00:07.381Z,16.27
2018-01-14T14:02:33.732Z,18.17
2018-01-14T14:05:00.049Z,20.50
2018-01-14T14:07:26.560Z,17.87
2018-01-14T14:09:52.918Z,18.27
2018-01-14T14:12:19.211Z,16.13
2018-01-14T14:14:48.797Z,16.27
2018-01-14T14:17:15.297Z,20.37
2018-01-14T14:19:44.506Z,17.20
2018-01-14T14:22:10.927Z,12.47
2018-01-14T14:24:37.674Z,17.80
2018-01-14T14:27:04.106Z,23.37
2018-01-14T14:29:30.520Z,17.43
2018-01-14T14:31:56.926Z,17.83
2018-01-14T14:34:23.253Z,18.00
2018-01-14T14:36:49.647Z,22.00
2018-01-14T14:39:16.097Z,16.13
2018-01-14T14:41:43.149Z,19.03
2018-01-14T14:44:09.455Z,18.00
2018-01-14T14:46:35.762Z,18.00
2018-01-14T14:49:02.160Z,19.40
2018-01-14T14:51:29.271Z,18.53
2018-01-14T14:53:55.581Z,16.13
2018-01-14T14:56:22.381Z,17.87
2018-01-14T14:58:48.635Z,18.30
2018-01-14T15:01:15.015Z,14.10
2018-01-14T15:03:41.325Z,17.03
2018-01-14T15:06:07.604Z,14.90
2018-01-14T15:08:33.924Z,14.80
2018-01-14T15:11:01.177Z,17.70
2018-01-14T15:13:27.458Z,17.37
2018-01-14T15:15:53.785Z,20.43
2018-01-14T15:18:20.833Z,18.27
2018-01-14T15:20:47.106Z,15.33
2018-01-14T15:23:13.456Z,19.57
2018-01-14T15:25:40.472Z,18.57
2018-01-14T15:28:07.543Z,20.87
2018-01-14T15:30:33.838Z,21.50
2018-01-14T15:33:00.882Z,20.23
2018-01-14T15:35:27.207Z,19.43
2018-01-14T15:37:53.533Z,22.00
2018-01-14T15:40:19.872Z,17.23
2018-01-14T15:42:46.318Z,18.80
2018-01-14T15:45:13.632Z,16.57
2018-01-14T15:47:40.101Z,22.03
2018-01-14T15:50:06.596Z,43.77
2018-01-14T15:52:33.922Z,46.63
2018-01-14T15:55:00.423Z,71.57
2018-01-14T15:57:26.706Z,42.03
2018-01-14T15:59:53.014Z,21.03
2018-01-14T16:02:19.513Z,21.23
2018-01-14T16:04:45.924Z,22.83
2018-01-14T16:07:13.302Z,24.33
2018-01-14T16:09:39.608Z,20.03
2018-01-14T16:12:06.225Z,16.70
2018-01-14T16:14:32.877Z,34.93
2018-01-14T16:16:59.322Z,26.60
2018-01-14T16:19:25.735Z,25.73
2018-01-14T16:21:52.168Z,24.30
2018-01-14T16:24:18.539Z,30.10
2018-01-14T16:26:44.963Z,34.80
2018-01-14T16:29:11.280Z,31.33
2018-01-14T16:31:37.750Z,26.87
2018-01-14T16:34:04.285Z,23.87
2018-01-14T16:36:31.385Z,25.70
2018-01-14T16:38:57.675Z,24.43
2018-01-14T16:41:24.025Z,24.03
2018-01-14T16:43:50.488Z,31.77
2018-01-14T16:46:17.143Z,42.87
2018-01-14T16:48:43.619Z,35.90
2018-01-14T16:51:10.305Z,27.43
2018-01-14T16:53:37.153Z,28.00
2018-01-14T16:56:03.942Z,26.03
2018-01-14T16:58:30.576Z,23.87
2018-01-14T17:00:58.545Z,25.70
2018-01-14T17:03:24.974Z,24.23
2018-01-14T17:05:52.177Z,26.10
2018-01-14T17:08:18.573Z,23.53
2018-01-14T17:10:44.977Z,27.53
2018-01-14T17:13:11.514Z,28.53
2018-01-14T17:15:37.787Z,28.23
2018-01-14T17:18:04.099Z,23.97
2018-01-14T17:20:30.396Z,21.93
2018-01-14T17:22:56.740Z,24.10
2018-01-14T17:25:23.754Z,23.77
2018-01-14T17:27:50.082Z,22.70
2018-01-14T17:30:17.138Z,20.80
2018-01-14T17:32:44.220Z,18.13
2018-01-14T17:35:10.502Z,19.87
2018-01-14T17:37:36.768Z,16.87
2018-01-14T17:40:03.076Z,19.70
2018-01-14T17:42:29.406Z,16.47
2018-01-14T17:44:55.684Z,23.23
2018-01-14T17:47:21.985Z,22.80
2018-01-14T17:49:48.327Z,22.63
2018-01-14T17:52:14.668Z,25.70
2018-01-14T17:54:40.950Z,29.90
2018-01-14T17:57:07.319Z,24.73
2018-01-14T17:59:33.610Z,24.97
2018-01-14T18:01:59.922Z,26.77
2018-01-14T18:04:26.214Z,24.83
2018-01-14T18:06:52.499Z,26.67
2018-01-14T18:09:18.774Z,25.33
2018-01-14T18:11:45.103Z,27.70
2018-01-14T18:14:12.145Z,24.13
2018-01-14T18:16:51.435Z,29.67
2018-01-14T18:19:17.706Z,27.67
2018-01-14T18:21:43.965Z,18.83
2018-01-14T18:24:10.288Z,27.07
2018-01-14T18:26:36.555Z,23.47
2018-01-14T18:29:02.853Z,24.10
2018-01-14T18:31:29.218Z,23.43
2018-01-14T18:33:56.437Z,20.30
2018-01-14T18:36:23.589Z,27.97
2018-01-14T18:38:50.039Z,24.57
2018-01-14T18:41:16.576Z,20.97
2018-01-14T18:43:42.845Z,21.37
2018-01-14T18:46:09.706Z,21.50
2018-01-14T18:48:37.907Z,22.77
2018-01-14T18:51:04.211Z,28.47
2018-01-14T18:53:30.579Z,29.00
2018-01-14T18:55:57.144Z,26.20
2018-01-14T18:58:23.422Z,25.70
2018-01-14T19:00:49.763Z,28.17
2018-01-14T19:03:16.351Z,30.10
2018-01-14T19:05:42.622Z,24.37
2018-01-14T19:08:10.945Z,25.90
2018-01-14T19:10:37.419Z,26.03
2018-01-14T19:13:04.046Z,25.50
2018-01-14T19:15:30.362Z,21.87
2018-01-14T19:17:56.945Z,23.87
2018-01-14T19:20:23.362Z,28.77
2018-01-14T19:22:49.720Z,29.20
2018-01-14T19:25:16.011Z,23.47
2018-01-14T19:27:42.592Z,27.73
2018-01-14T19:30:09.229Z,24.03
2018-01-14T19:32:35.804Z,24.67
2018-01-14T19:35:02.262Z,22.40
2018-01-14T19:37:28.723Z,40.17
2018-01-14T19:39:55.287Z,31.97
2018-01-14T19:42:21.541Z,29.50
2018-01-14T19:44:47.835Z,26.73
2018-01-14T19:47:14.621Z,27.87
2018-01-14T19:49:41.076Z,26.37
2018-01-14T19:52:08.290Z,29.17
2018-01-14T19:54:34.752Z,23.57
2018-01-14T19:57:01.132Z,26.47
2018-01-14T19:59:28.235Z,27.77
2018-01-14T20:01:54.574Z,30.23
2018-01-14T20:04:20.890Z,37.17
2018-01-14T20:06:47.590Z,49.67
2018-01-14T20:09:13.874Z,53.33
2018-01-14T20:11:40.657Z,39.77
2018-01-14T20:14:06.976Z,36.97
2018-01-14T20:16:33.267Z,37.60
2018-01-14T20:18:59.537Z,31.77
2018-01-14T20:21:26.853Z,28.37
2018-01-14T20:23:53.472Z,32.30
2018-01-14T20:26:19.808Z,26.60
2018-01-14T20:28:47.428Z,31.13
2018-01-14T20:31:14.362Z,25.50
2018-01-14T20:33:40.629Z,28.70
2018-01-14T20:36:07.163Z,28.00
2018-01-14T20:38:33.784Z,51.73
2018-01-14T20:41:00.226Z,55.27
2018-01-14T20:43:26.663Z,47.23
2018-01-14T20:45:52.947Z,29.90
2018-01-14T20:48:20.010Z,32.10
2018-01-14T20:50:46.309Z,30.63
2018-01-14T20:53:12.633Z,25.30
2018-01-14T20:55:41.074Z,29.53
2018-01-14T20:58:07.433Z,22.67
2018-01-14T21:00:33.824Z,29.33
2018-01-14T21:03:00.150Z,24.03
2018-01-14T21:05:26.502Z,28.70
2018-01-14T21:07:53.515Z,29.37
2018-01-14T21:10:19.843Z,28.07
2018-01-14T21:12:46.271Z,26.97
2018-01-14T21:15:13.330Z,25.50
2018-01-14T21:17:39.620Z,26.80
2018-01-14T21:20:06.867Z,23.73
2018-01-14T21:22:33.276Z,31.80
2018-01-14T21:25:00.278Z,29.87
2018-01-14T21:27:26.574Z,30.27
2018-01-14T21:29:52.868Z,29.00
2018-01-14T21:32:19.138Z,26.30
2018-01-14T21:34:45.427Z,25.47
2018-01-14T21:37:13.927Z,20.60
2018-01-14T21:39:40.218Z,23.43
2018-01-14T21:42:06.555Z,19.20
2018-01-14T21:44:33.655Z,22.70
2018-01-14T21:46:59.954Z,19.47
2018-01-14T21:49:27.103Z,23.47
2018-01-14T21:51:53.471Z,18.20
2018-01-14T21:54:20.501Z,18.43
2018-01-14T21:56:47.559Z,19.80
2018-01-14T21:59:13.858Z,20.63
2018-01-14T22:01:40.123Z,18.87
2018-01-14T22:04:06.417Z,22.90
2018-01-14T22:06:34.554Z,19.70
2018-01-14T22:09:02.287Z,19.10
2018-01-14T22:11:28.573Z,17.87
2018-01-14T22:13:54.949Z,20.93
2018-01-14T22:16:21.247Z,18.07
2018-01-14T22:18:47.553Z,21.57
2018-01-14T22:21:14.631Z,19.17
2018-01-14T22:23:40.907Z,21.37
2018-01-14T22:26:07.203Z,20.07
2018-01-14T22:28:33.556Z,23.07
2018-01-14T22:30:59.849Z,18.93
2018-01-14T22:33:26.150Z,19.47
2018-01-14T22:35:54.969Z,19.90
2018-01-14T22:38:21.229Z,26.80
2018-01-14T22:40:48.195Z,20.93
2018-01-14T22:43:14.845Z,19.70
2018-01-14T22:45:41.254Z,19.83
2018-01-14T22:48:10.040Z,21.10
2018-01-14T22:50:36.348Z,20.73
2018-01-14T22:53:02.682Z,22.20
2018-01-14T22:55:28.998Z,20.63
2018-01-14T22:57:55.278Z,21.20
2018-01-14T23:00:21.968Z,26.80
2018-01-14T23:02:48.762Z,34.53
2018-01-14T23:05:15.137Z,57.03
2018-01-14T23:07:41.620Z,59.10
2018-01-14T23:10:08.918Z,51.07
2018-01-14T23:12:36.312Z,33.83
2018-01-14T23:15:07.674Z,21.37
2018-01-14T23:17:34.698Z,21.87
2018-01-14T23:20:01.292Z,25.10
2018-01-14T23:22:27.594Z,23.87
2018-01-14T23:24:53.880Z,21.97
2018-01-14T23:27:20.162Z,20.63
2018-01-14T23:29:47.211Z,20.80
2018-01-14T23:32:13.478Z,21.37
2018-01-14T23:34:39.766Z,19.40
2018-01-14T23:37:06.099Z,22.17
2018-01-14T23:39:32.949Z,22.27
2018-01-14T23:41:59.988Z,21.07
2018-01-14T23:44:26.373Z,22.07
2018-01-14T23:46:53.122Z,21.37
2018-01-14T23:49:19.415Z,24.37
2018-01-14T23:51:45.891Z,21.10
2018-01-14T23:54:12.188Z,22.93
2018-01-14T23:56:38.482Z,21.00
2018-01-14T23:59:04.788Z,23.23
